Time;durP1;ratioP1;P1;durP2;ratioP2;P2;SDS_P1;SDS_P2;PMS_P1;PMS_P2;Temp;Humidity;BMP_temperature;BMP_pressure;BME280_temperature;BME280_humidity;BME280_pressure;Samples;Min_cycle;Max_cycle;Signal;HPM_P1;HPM_P2
2023/04/05 00:00:54;;;;;;;14.18;7.28;;;1.20;99.90;;;;;;4988131;28;20401;-65
2023/04/05 00:03:20;;;;;;;12.10;6.60;;;1.20;99.90;;;;;;4981046;28;20046;-65
2023/04/05 00:05:48;;;;;;;13.88;6.97;;;1.10;99.90;;;;;;4993924;28;20045;-65
2023/04/05 00:08:23;;;;;;;12.23;7.43;;;1.10;99.90;;;;;;4985908;28;20051;-65
2023/04/05 00:10:49;;;;;;;12.70;6.93;;;1.10;99.90;;;;;;4984137;28;20074;-65
2023/04/05 00:13:15;;;;;;;16.67;7.53;;;1.10;99.90;;;;;;4993471;28;20034;-65
2023/04/05 00:15:41;;;;;;;11.93;6.72;;;1.10;99.90;;;;;;4976625;28;20049;-65
2023/04/05 00:18:07;;;;;;;12.68;6.97;;;1.10;99.90;;;;;;4978732;28;20039;-65
2023/04/05 00:20:32;;;;;;;16.60;7.65;;;1.10;99.90;;;;;;4988026;28;20041;-65
2023/04/05 00:22:58;;;;;;;15.40;8.07;;;1.10;99.90;;;;;;4993646;28;20145;-64
2023/04/05 00:25:25;;;;;;;18.17;7.80;;;1.20;99.90;;;;;;4986228;28;20078;-63
2023/04/05 00:27:50;;;;;;;12.90;7.30;;;1.20;99.90;;;;;;4981426;28;20045;-64
2023/04/05 00:30:19;;;;;;;13.30;7.25;;;1.20;99.90;;;;;;4993343;28;20046;-65
2023/04/05 00:32:49;;;;;;;12.55;6.72;;;1.20;99.90;;;;;;4993687;28;20050;-65
2023/04/05 00:35:15;;;;;;;13.85;7.72;;;1.10;99.90;;;;;;4965603;28;20035;-65
2023/04/05 00:37:41;;;;;;;11.23;5.32;;;1.00;99.90;;;;;;4988901;28;20038;-64
2023/04/05 00:40:07;;;;;;;10.05;6.00;;;1.00;99.90;;;;;;4993201;28;20044;-64
2023/04/05 00:42:33;;;;;;;11.95;6.20;;;0.90;99.90;;;;;;4979959;28;20039;-65
2023/04/05 00:44:59;;;;;;;11.75;6.30;;;0.70;99.90;;;;;;4981476;28;20042;-64
2023/04/05 00:47:25;;;;;;;13.40;6.55;;;0.70;99.90;;;;;;4992608;28;20046;-65
2023/04/05 00:49:51;;;;;;;11.27;6.43;;;0.50;99.90;;;;;;4985648;28;20035;-65
2023/04/05 00:52:18;;;;;;;14.13;6.97;;;0.50;99.90;;;;;;4975766;28;20081;-64
2023/04/05 00:54:44;;;;;;;14.85;7.57;;;0.50;99.90;;;;;;4992597;28;20031;-65
2023/04/05 00:57:10;;;;;;;13.23;7.53;;;0.50;99.90;;;;;;4975755;28;20042;-65
2023/04/05 00:59:35;;;;;;;15.45;7.93;;;0.50;99.90;;;;;;4978117;28;20034;-65
2023/04/05 01:02:12;;;;;;;16.08;7.95;;;0.40;99.90;;;;;;4991361;28;20174;-63
2023/04/05 01:04:48;;;;;;;14.68;7.60;;;0.50;99.90;;;;;;4993097;28;20035;-64
2023/04/05 01:07:32;;;;;;;17.00;7.80;;;0.40;99.90;;;;;;4979771;28;20038;-62
2023/04/05 01:09:59;;;;;;;14.77;7.10;;;0.40;99.90;;;;;;4989222;28;20378;-65
2023/04/05 01:12:31;;;;;;;15.05;7.65;;;0.30;99.90;;;;;;4992873;28;20049;-65
2023/04/05 01:14:58;;;;;;;16.38;7.43;;;0.30;99.90;;;;;;4980859;28;20989;-65
2023/04/05 01:17:27;;;;;;;16.30;7.70;;;0.20;99.90;;;;;;4965495;28;20577;-64
2023/04/05 01:19:58;;;;;;;14.93;7.80;;;0.20;99.90;;;;;;4992277;28;20046;-65
2023/04/05 01:22:42;;;;;;;18.65;8.65;;;0.20;99.90;;;;;;4992601;28;20409;-65
2023/04/05 01:25:36;;;;;;;15.73;8.50;;;0.20;99.90;;;;;;4986629;28;20121;-63
2023/04/05 01:28:35;;;;;;;16.10;8.40;;;0.20;99.90;;;;;;4991292;28;20060;-65
2023/04/05 01:31:13;;;;;;;15.23;7.50;;;0.20;99.90;;;;;;4973163;28;20034;-65
2023/04/05 01:33:47;;;;;;;18.33;8.15;;;0.20;99.90;;;;;;4974955;28;20088;-65
2023/04/05 01:36:30;;;;;;;14.18;7.47;;;0.10;99.90;;;;;;4988993;28;20038;-64
2023/04/05 01:38:58;;;;;;;15.98;7.85;;;0.20;99.90;;;;;;4991909;28;20038;-65
2023/04/05 01:41:25;;;;;;;16.00;8.48;;;0.10;99.90;;;;;;4971465;28;20528;-65
2023/04/05 01:43:50;;;;;;;15.23;8.77;;;0.10;99.90;;;;;;4983176;28;20035;-65
2023/04/05 01:46:16;;;;;;;17.42;8.73;;;0.10;99.90;;;;;;4974906;28;20047;-65
2023/04/05 01:48:41;;;;;;;13.63;7.68;;;0.10;99.90;;;;;;4985526;28;20090;-64
2023/04/05 01:51:07;;;;;;;16.45;8.57;;;0.10;99.90;;;;;;4974515;28;20039;-65
2023/04/05 01:53:33;;;;;;;19.20;9.40;;;0.10;99.90;;;;;;4991831;28;20080;-65
2023/04/05 01:56:00;;;;;;;17.63;8.80;;;0.00;99.90;;;;;;4992161;28;20086;-65
2023/04/05 01:58:26;;;;;;;16.55;8.32;;;0.10;99.90;;;;;;4971114;28;20049;-65
2023/04/05 02:00:54;;;;;;;18.17;9.25;;;0.00;99.90;;;;;;4985674;28;20034;-64
2023/04/05 02:03:20;;;;;;;16.75;8.23;;;-0.10;99.90;;;;;;4991537;28;20030;-65
2023/04/05 02:05:46;;;;;;;17.83;8.52;;;-0.10;99.90;;;;;;4992110;28;20509;-65
2023/04/05 02:08:13;;;;;;;14.88;8.88;;;-0.10;99.90;;;;;;4978330;28;20536;-65
2023/04/05 02:10:39;;;;;;;21.05;8.75;;;-0.10;99.90;;;;;;4983503;28;20381;-65
2023/04/05 02:13:05;;;;;;;18.48;8.93;;;-0.10;99.90;;;;;;4974020;28;20445;-65
2023/04/05 02:15:32;;;;;;;18.08;9.18;;;-0.20;99.90;;;;;;4974433;28;20050;-65
2023/04/05 02:18:00;;;;;;;18.20;9.43;;;-0.20;99.90;;;;;;4979702;28;20648;-65
2023/04/05 02:20:26;;;;;;;18.50;9.07;;;-0.30;99.90;;;;;;4991289;28;20042;-64
2023/04/05 02:22:52;;;;;;;19.98;9.52;;;-0.30;99.90;;;;;;4991544;28;20038;-65
2023/04/05 02:25:18;;;;;;;18.98;9.73;;;-0.30;99.90;;;;;;4981332;28;20489;-64
2023/04/05 02:27:44;;;;;;;17.23;9.40;;;-0.30;99.90;;;;;;4990773;28;20417;-64
2023/04/05 02:30:12;;;;;;;17.80;9.45;;;-0.30;99.90;;;;;;4977461;28;20034;-65
2023/04/05 02:32:41;;;;;;;20.08;10.05;;;-0.30;99.90;;;;;;4974122;28;20237;-65
2023/04/05 02:35:08;;;;;;;21.13;9.50;;;-0.40;99.90;;;;;;4986741;28;20061;-65
2023/04/05 02:37:33;;;;;;;16.70;9.18;;;-0.40;99.90;;;;;;4987890;28;20038;-65
2023/04/05 02:39:59;;;;;;;20.80;9.65;;;-0.40;99.90;;;;;;4974673;28;20061;-65
2023/04/05 02:42:25;;;;;;;17.50;9.52;;;-0.40;99.90;;;;;;4979774;28;20035;-65
2023/04/05 02:44:51;;;;;;;17.48;9.50;;;-0.50;99.90;;;;;;4987196;28;20066;-64
2023/04/05 02:47:20;;;;;;;16.13;9.02;;;-0.50;99.90;;;;;;4991796;28;20038;-64
2023/04/05 02:49:49;;;;;;;17.20;9.75;;;-0.50;99.90;;;;;;4986360;28;20504;-65
2023/04/05 02:52:15;;;;;;;18.60;9.52;;;-0.60;99.90;;;;;;4981406;28;20394;-65
2023/04/05 02:54:41;;;;;;;18.92;9.65;;;-0.60;99.90;;;;;;4991918;28;20534;-65
2023/04/05 02:57:09;;;;;;;17.15;9.57;;;-0.60;99.90;;;;;;4992220;28;20038;-64
2023/04/05 02:59:35;;;;;;;18.40;9.30;;;-0.70;99.90;;;;;;4976431;28;20560;-64
2023/04/05 03:02:01;;;;;;;17.13;9.48;;;-0.70;99.90;;;;;;4970169;28;20466;-64
2023/04/05 03:04:27;;;;;;;17.45;9.23;;;-0.80;99.90;;;;;;4992147;28;20077;-65
2023/04/05 03:06:53;;;;;;;15.85;8.52;;;-0.80;99.90;;;;;;4975134;28;20031;-65
2023/04/05 03:09:20;;;;;;;19.50;8.68;;;-0.90;99.90;;;;;;4964795;28;20050;-65
2023/04/05 03:11:45;;;;;;;12.40;7.22;;;-0.90;99.90;;;;;;4992007;28;20101;-64
2023/04/05 03:14:11;;;;;;;16.20;8.38;;;-1.00;99.90;;;;;;4986077;28;20046;-65
2023/04/05 03:16:38;;;;;;;17.27;8.27;;;-1.10;99.90;;;;;;4973284;28;20038;-65
2023/04/05 03:19:05;;;;;;;15.23;8.35;;;-1.10;99.90;;;;;;4991430;28;20038;-65
2023/04/05 03:21:32;;;;;;;13.48;8.02;;;-1.20;99.90;;;;;;4991933;28;20042;-65
2023/04/05 03:23:59;;;;;;;17.02;9.00;;;-1.20;99.90;;;;;;4989022;28;20050;-65
2023/04/05 03:26:25;;;;;;;16.02;7.88;;;-1.20;99.90;;;;;;4971470;28;20122;-65
2023/04/05 03:28:50;;;;;;;16.25;8.10;;;-1.30;99.90;;;;;;4990933;28;20114;-65
2023/04/05 03:31:16;;;;;;;14.63;7.95;;;-1.30;99.90;;;;;;4986894;28;20050;-65
2023/04/05 03:33:42;;;;;;;16.42;9.32;;;-1.20;99.90;;;;;;4985100;28;20057;-65
2023/04/05 03:36:07;;;;;;;18.33;9.35;;;-1.30;99.90;;;;;;4994188;28;20038;-65
2023/04/05 03:38:33;;;;;;;18.42;9.88;;;-1.30;99.90;;;;;;4977678;28;20034;-65
2023/04/05 03:41:00;;;;;;;20.65;9.45;;;-1.20;99.90;;;;;;4974702;28;20113;-65
2023/04/05 03:43:26;;;;;;;18.77;9.85;;;-1.20;99.90;;;;;;4992611;28;20043;-64
2023/04/05 03:45:52;;;;;;;19.50;10.02;;;-1.20;99.90;;;;;;4993764;28;20401;-65
2023/04/05 03:48:19;;;;;;;19.35;9.63;;;-1.20;99.90;;;;;;4987593;28;20057;-65
2023/04/05 03:50:45;;;;;;;16.67;9.80;;;-1.10;99.90;;;;;;4982689;28;20452;-64
2023/04/05 03:53:11;;;;;;;18.88;9.52;;;-1.20;99.90;;;;;;4994748;28;20162;-65
2023/04/05 03:55:37;;;;;;;16.65;8.40;;;-1.20;99.90;;;;;;4992376;28;20067;-65
2023/04/05 03:58:02;;;;;;;17.25;9.07;;;-1.20;99.90;;;;;;4983256;28;20039;-65
2023/04/05 04:00:28;;;;;;;17.52;8.55;;;-1.30;99.90;;;;;;4994224;28;20042;-65
2023/04/05 04:02:54;;;;;;;14.77;8.32;;;-1.30;99.90;;;;;;4994977;28;20038;-65
2023/04/05 04:05:20;;;;;;;16.95;8.93;;;-1.40;99.90;;;;;;4995084;28;20074;-65
2023/04/05 04:07:46;;;;;;;17.42;9.32;;;-1.40;99.90;;;;;;4973758;28;20038;-65
2023/04/05 04:10:15;;;;;;;16.90;9.02;;;-1.40;99.90;;;;;;4990396;28;20041;-65
2023/04/05 04:12:41;;;;;;;15.13;8.25;;;-1.50;99.90;;;;;;4994444;28;20123;-65
2023/04/05 04:15:07;;;;;;;17.70;9.20;;;-1.50;99.90;;;;;;4994844;28;20042;-65
2023/04/05 04:17:35;;;;;;;20.48;9.48;;;-1.50;99.90;;;;;;4981743;28;20089;-65
2023/04/05 04:20:06;;;;;;;19.10;10.18;;;-1.50;99.90;;;;;;4993182;28;20623;-65
2023/04/05 04:22:32;;;;;;;18.77;9.48;;;-1.40;99.90;;;;;;4994679;28;20042;-65
2023/04/05 04:25:04;;;;;;;23.13;9.82;;;-1.40;99.90;;;;;;4987059;28;20168;-65
2023/04/05 04:27:30;;;;;;;20.42;9.73;;;-1.40;99.90;;;;;;4987226;28;20058;-65
2023/04/05 04:30:03;;;;;;;16.63;9.52;;;-1.50;99.90;;;;;;4994341;28;20099;-65
2023/04/05 04:32:52;;;;;;;20.70;10.90;;;-1.60;99.90;;;;;;4994411;28;20047;-64
2023/04/05 04:35:19;;;;;;;18.85;10.98;;;-1.60;99.90;;;;;;4985222;28;20049;-65
2023/04/05 04:37:46;;;;;;;24.23;11.60;;;-1.60;99.90;;;;;;4986831;28;20477;-65
2023/04/05 04:40:16;;;;;;;20.52;11.02;;;-1.40;99.90;;;;;;4967549;28;20553;-65
2023/04/05 04:42:45;;;;;;;21.17;11.32;;;-1.30;99.90;;;;;;4976022;28;20111;-65
2023/04/05 04:45:14;;;;;;;32.40;11.57;;;-1.20;99.90;;;;;;4993650;28;20050;-65
2023/04/05 04:47:41;;;;;;;25.00;11.18;;;-1.20;99.90;;;;;;4968780;28;20035;-65
2023/04/05 04:50:06;;;;;;;21.55;10.27;;;-1.30;99.90;;;;;;4983997;28;20496;-64
2023/04/05 04:52:33;;;;;;;18.63;9.50;;;-1.30;99.90;;;;;;4993946;28;20038;-65
2023/04/05 04:54:58;;;;;;;17.65;9.77;;;-1.40;99.90;;;;;;4994156;28;20057;-65
2023/04/05 04:57:24;;;;;;;18.90;10.02;;;-1.60;99.90;;;;;;4966325;28;20042;-65
2023/04/05 04:59:50;;;;;;;21.65;11.52;;;-1.70;99.90;;;;;;4981711;28;20101;-65
2023/04/05 05:02:15;;;;;;;22.05;10.98;;;-1.70;99.90;;;;;;4992608;28;20030;-65
2023/04/05 05:04:42;;;;;;;19.25;9.70;;;-1.70;99.90;;;;;;4993381;28;20090;-65
2023/04/05 05:07:09;;;;;;;19.45;9.90;;;-1.80;99.90;;;;;;4983871;28;20066;-65
2023/04/05 05:09:35;;;;;;;16.77;9.02;;;-1.80;99.90;;;;;;4983450;28;20046;-64
2023/04/05 05:12:00;;;;;;;16.80;9.68;;;-1.90;99.90;;;;;;4989397;28;20046;-66
2023/04/05 05:14:26;;;;;;;22.25;9.02;;;-1.90;99.90;;;;;;4987697;28;20069;-65
2023/04/05 05:16:53;;;;;;;17.00;9.07;;;-2.00;99.90;;;;;;4970580;28;20099;-66
2023/04/05 05:19:19;;;;;;;21.55;9.60;;;-2.00;99.90;;;;;;4947864;28;20042;-66
2023/04/05 05:21:46;;;;;;;23.30;10.02;;;-2.00;99.90;;;;;;4986771;28;20706;-66
2023/04/05 05:24:13;;;;;;;20.05;10.77;;;-1.90;99.90;;;;;;4987965;28;20038;-65
2023/04/05 05:26:38;;;;;;;19.75;10.88;;;-1.80;99.90;;;;;;4962112;28;20042;-65
2023/04/05 05:29:04;;;;;;;19.55;11.10;;;-1.80;99.90;;;;;;4987751;28;20100;-65
2023/04/05 05:31:31;;;;;;;21.05;10.88;;;-1.70;99.90;;;;;;4988638;28;20038;-65
2023/04/05 05:33:57;;;;;;;19.65;11.00;;;-1.70;99.90;;;;;;4981083;28;20042;-67
2023/04/05 05:36:24;;;;;;;21.90;11.65;;;-1.60;99.90;;;;;;4971072;28;20033;-65
2023/04/05 05:38:51;;;;;;;21.77;10.80;;;-1.60;99.90;;;;;;4989278;28;20050;-66
2023/04/05 05:41:17;;;;;;;23.10;11.75;;;-1.50;99.90;;;;;;4973637;28;20489;-66
2023/04/05 05:43:42;;;;;;;21.02;11.88;;;-1.50;99.90;;;;;;4981721;28;20030;-66
2023/04/05 05:46:08;;;;;;;25.25;12.57;;;-1.40;99.90;;;;;;4975778;28;20053;-65
2023/04/05 05:48:34;;;;;;;21.05;11.55;;;-1.40;99.90;;;;;;4981339;28;20038;-66
2023/04/05 05:51:01;;;;;;;21.90;12.02;;;-1.30;99.90;;;;;;4990850;28;20104;-67
2023/04/05 05:53:26;;;;;;;22.80;12.27;;;-1.20;99.90;;;;;;4992338;28;20130;-66
2023/04/05 05:55:52;;;;;;;24.70;12.85;;;-1.20;99.90;;;;;;4988321;28;20133;-67
2023/04/05 05:58:18;;;;;;;31.05;13.05;;;-1.10;99.90;;;;;;4991925;28;20045;-67
2023/04/05 06:00:43;;;;;;;22.90;12.23;;;-1.10;99.90;;;;;;4992432;28;20042;-67
2023/04/05 06:03:09;;;;;;;23.73;12.43;;;-1.00;99.90;;;;;;4985927;28;20519;-65
2023/04/05 06:05:35;;;;;;;25.23;12.90;;;-0.90;99.90;;;;;;4991969;28;20033;-66
2023/04/05 06:08:02;;;;;;;27.35;14.00;;;-0.90;99.90;;;;;;4981404;28;20399;-66
2023/04/05 06:10:29;;;;;;;24.50;13.30;;;-0.80;99.90;;;;;;4992272;28;20046;-66
2023/04/05 06:12:54;;;;;;;28.38;12.98;;;-0.70;99.90;;;;;;4992399;28;20057;-66
2023/04/05 06:15:20;;;;;;;23.52;13.57;;;-0.70;99.90;;;;;;4992597;28;20038;-66
2023/04/05 06:17:45;;;;;;;26.52;13.88;;;-0.60;99.90;;;;;;4986959;28;20049;-66
2023/04/05 06:20:11;;;;;;;30.10;15.10;;;-0.50;99.90;;;;;;4991547;28;20046;-65
2023/04/05 06:22:41;;;;;;;28.98;15.68;;;-0.40;99.90;;;;;;4975473;28;20054;-66
2023/04/05 06:25:07;;;;;;;33.08;17.10;;;-0.30;99.90;;;;;;4978647;28;20113;-66
2023/04/05 06:27:33;;;;;;;30.75;16.67;;;-0.20;99.90;;;;;;4991903;28;20078;-66
2023/04/05 06:29:59;;;;;;;33.42;17.38;;;0.00;99.90;;;;;;4992000;28;20511;-66
2023/04/05 06:32:24;;;;;;;32.45;17.23;;;0.10;99.90;;;;;;4980307;28;20226;-66
2023/04/05 06:34:50;;;;;;;40.17;19.40;;;0.20;99.90;;;;;;4974295;28;20378;-66
2023/04/05 06:37:15;;;;;;;32.08;17.50;;;0.30;99.90;;;;;;4992045;28;20409;-66
2023/04/05 06:39:41;;;;;;;34.25;17.50;;;0.40;99.90;;;;;;4971067;28;20412;-66
2023/04/05 06:42:06;;;;;;;34.83;18.27;;;0.50;99.90;;;;;;4978606;28;20054;-66
2023/04/05 06:44:32;;;;;;;36.25;18.10;;;0.60;99.90;;;;;;4974199;28;20038;-65
2023/04/05 06:46:58;;;;;;;38.00;18.98;;;0.70;99.90;;;;;;4992037;28;20030;-67
2023/04/05 06:49:23;;;;;;;31.88;17.90;;;0.80;99.90;;;;;;4988452;28;20467;-66
2023/04/05 06:51:49;;;;;;;36.50;18.65;;;0.90;99.90;;;;;;4974125;28;20035;-66
2023/04/05 06:54:15;;;;;;;36.67;19.58;;;1.00;99.90;;;;;;4989104;28;20041;-66
2023/04/05 06:56:40;;;;;;;37.55;19.27;;;1.00;99.90;;;;;;4986178;28;20560;-66
2023/04/05 06:59:06;;;;;;;32.08;19.38;;;1.10;99.90;;;;;;4978252;28;20057;-66
2023/04/05 07:01:32;;;;;;;34.53;18.98;;;1.20;99.90;;;;;;4991237;28;20042;-66
2023/04/05 07:03:57;;;;;;;32.60;17.73;;;1.30;99.90;;;;;;4990857;28;20046;-67
2023/04/05 07:06:23;;;;;;;34.00;20.70;;;1.50;99.90;;;;;;4981970;28;20034;-67
2023/04/05 07:08:49;;;;;;;37.75;19.63;;;1.50;99.90;;;;;;4993663;28;20034;-66
2023/04/05 07:11:14;;;;;;;36.38;20.30;;;1.60;99.90;;;;;;4994014;28;20504;-67
2023/04/05 07:13:40;;;;;;;31.65;18.83;;;1.70;99.90;;;;;;4987606;28;20095;-67
2023/04/05 07:16:06;;;;;;;36.45;19.60;;;1.80;99.90;;;;;;4988015;28;20042;-66
2023/04/05 07:18:31;;;;;;;34.47;20.65;;;1.90;99.90;;;;;;4993462;28;20555;-67
2023/04/05 07:21:02;;;;;;;34.35;20.25;;;2.00;99.90;;;;;;4986152;28;20050;-66
2023/04/05 07:23:28;;;;;;;36.85;20.85;;;2.10;99.90;;;;;;4980282;28;20050;-67
2023/04/05 07:25:58;;;;;;;38.45;20.83;;;2.20;99.90;;;;;;4983530;28;20073;-66
2023/04/05 07:28:23;;;;;;;36.33;19.73;;;2.30;99.90;;;;;;4992501;28;20042;-66
2023/04/05 07:30:49;;;;;;;38.72;19.63;;;2.40;99.90;;;;;;4965224;28;20548;-65
2023/04/05 07:33:15;;;;;;;35.65;19.40;;;2.40;99.90;;;;;;4983166;28;20042;-66
2023/04/05 07:35:41;;;;;;;31.02;18.90;;;2.50;99.90;;;;;;4993234;28;20073;-66
2023/04/05 07:38:10;;;;;;;28.75;18.70;;;2.60;99.90;;;;;;5004260;28;20045;-66
2023/04/05 07:40:35;;;;;;;33.78;19.00;;;2.70;99.90;;;;;;4983779;28;20524;-66
2023/04/05 07:43:01;;;;;;;30.30;17.40;;;2.80;99.90;;;;;;4993320;28;20031;-66
2023/04/05 07:45:26;;;;;;;31.63;17.58;;;2.90;99.90;;;;;;4994840;28;20541;-66
2023/04/05 07:47:52;;;;;;;32.72;16.77;;;2.90;99.90;;;;;;4985403;28;20035;-66
2023/04/05 07:50:17;;;;;;;30.58;16.88;;;3.00;99.90;;;;;;4985431;28;20076;-66
2023/04/05 07:52:43;;;;;;;30.70;16.10;;;3.20;99.90;;;;;;4995171;28;20064;-66
2023/04/05 07:55:09;;;;;;;29.05;16.52;;;3.30;99.90;;;;;;4995302;28;20046;-66
2023/04/05 07:57:35;;;;;;;25.92;15.82;;;3.50;99.90;;;;;;4990857;28;20050;-66
2023/04/05 08:00:01;;;;;;;25.25;15.48;;;3.60;99.90;;;;;;4994549;28;20047;-66
2023/04/05 08:02:27;;;;;;;22.73;12.77;;;3.70;99.90;;;;;;4994976;28;20104;-66
2023/04/05 08:04:52;;;;;;;26.50;13.05;;;3.80;99.90;;;;;;4965705;28;20469;-66
2023/04/05 08:07:18;;;;;;;20.10;11.38;;;4.00;99.90;;;;;;4991104;28;20128;-66
2023/04/05 08:09:43;;;;;;;27.05;13.23;;;4.00;99.90;;;;;;4977272;28;20045;-66
2023/04/05 08:12:10;;;;;;;17.63;10.63;;;4.10;99.90;;;;;;4990192;28;20034;-66
2023/04/05 08:14:36;;;;;;;16.83;10.48;;;4.20;99.90;;;;;;4980890;28;20089;-66
2023/04/05 08:17:01;;;;;;;20.92;10.88;;;4.40;99.90;;;;;;4989211;28;20034;-66
2023/04/05 08:19:27;;;;;;;21.77;10.77;;;4.50;99.90;;;;;;4993260;28;20042;-66
2023/04/05 08:21:52;;;;;;;17.48;10.40;;;4.60;99.90;;;;;;4980880;28;20389;-66
2023/04/05 08:24:18;;;;;;;17.85;10.77;;;4.80;99.90;;;;;;4992103;28;20066;-66
2023/04/05 08:26:44;;;;;;;15.75;9.82;;;4.80;99.90;;;;;;4994554;28;20126;-66
2023/04/05 08:29:10;;;;;;;15.30;8.05;;;4.90;99.90;;;;;;4992218;28;20121;-66
2023/04/05 08:31:36;;;;;;;14.10;7.20;;;5.10;99.90;;;;;;4982323;28;20125;-66
2023/04/05 08:34:01;;;;;;;13.75;7.80;;;5.20;99.90;;;;;;4989973;28;20520;-66
2023/04/05 08:36:27;;;;;;;13.63;7.40;;;5.30;99.90;;;;;;4991431;28;20652;-66
2023/04/05 08:38:53;;;;;;;15.32;7.57;;;5.50;99.90;;;;;;4982245;28;20039;-66
2023/04/05 08:41:22;;;;;;;11.68;6.53;;;5.50;99.90;;;;;;4991578;28;20053;-66
2023/04/05 08:44:01;;;;;;;13.15;7.22;;;5.60;99.90;;;;;;4994705;28;20070;-66
2023/04/05 08:46:32;;;;;;;14.38;7.47;;;5.70;99.90;;;;;;4987317;28;20038;-66
2023/04/05 08:48:58;;;;;;;13.48;6.93;;;5.80;99.90;;;;;;4988780;28;20034;-66
2023/04/05 08:51:25;;;;;;;13.75;7.32;;;5.80;99.90;;;;;;4976364;28;20093;-66
2023/04/05 08:53:51;;;;;;;10.52;6.40;;;5.90;99.90;;;;;;4968214;28;20104;-66
2023/04/05 08:56:23;;;;;;;13.05;7.18;;;6.00;99.90;;;;;;4992021;28;20042;-66
2023/04/05 08:58:58;;;;;;;;;;;6.10;99.90;;;;;;4994035;28;20524;-66
2023/04/05 09:01:26;;;;;;;9.68;6.00;;;6.10;99.90;;;;;;4994201;28;19968;-66
2023/04/05 09:03:53;;;;;;;12.13;6.05;;;6.20;99.90;;;;;;4983432;28;20545;-66
2023/04/05 09:06:20;;;;;;;8.68;5.72;;;6.20;99.90;;;;;;4986792;28;20052;-66
2023/04/05 09:08:47;;;;;;;10.45;6.53;;;6.30;99.90;;;;;;4993563;28;20046;-66
2023/04/05 09:11:14;;;;;;;11.48;6.43;;;6.40;99.90;;;;;;4979603;28;20059;-66
2023/04/05 09:13:40;;;;;;;12.05;6.35;;;6.50;99.90;;;;;;4973300;28;20054;-64
2023/04/05 09:16:06;;;;;;;10.25;5.72;;;6.50;99.90;;;;;;4990366;28;20382;-64
2023/04/05 09:18:32;;;;;;;10.98;6.57;;;6.70;99.90;;;;;;4979994;28;20092;-64
2023/04/05 09:21:06;;;;;;;11.70;6.43;;;6.70;99.90;;;;;;4991510;28;20030;-64
2023/04/05 09:23:36;;;;;;;9.95;5.38;;;6.70;99.90;;;;;;4974907;28;20035;-64
2023/04/05 09:26:24;;;;;;;11.90;5.80;;;6.80;99.90;;;;;;4974908;28;20110;-64
2023/04/05 09:28:50;;;;;;;13.23;5.32;;;6.90;99.90;;;;;;4967750;28;20046;-64
2023/04/05 09:31:35;;;;;;;13.18;5.82;;;6.90;99.90;;;;;;4988874;28;20049;-64
2023/04/05 09:34:02;;;;;;;10.68;5.85;;;7.00;99.90;;;;;;4993108;28;20042;-64
2023/04/05 09:36:28;;;;;;;9.52;5.70;;;7.10;99.90;;;;;;4982341;28;20046;-64
2023/04/05 09:39:05;;;;;;;12.23;6.05;;;7.10;99.90;;;;;;4989944;28;20088;-64
2023/04/05 09:41:31;;;;;;;9.77;5.43;;;7.20;99.90;;;;;;4992164;28;20047;-64
2023/04/05 09:43:57;;;;;;;10.43;5.47;;;7.20;99.90;;;;;;4992345;28;20038;-64
2023/04/05 09:46:31;;;;;;;8.80;5.15;;;7.40;99.90;;;;;;4986860;28;20108;-64
2023/04/05 09:48:56;;;;;;;7.53;4.63;;;7.50;99.90;;;;;;4985807;28;20049;-64
2023/04/05 09:51:22;;;;;;;9.70;5.38;;;7.70;99.90;;;;;;4980009;28;20046;-64
2023/04/05 09:54:08;;;;;;;7.60;4.57;;;7.70;99.90;;;;;;4992772;28;20038;-65
2023/04/05 09:56:39;;;;;;;11.05;5.38;;;7.70;99.60;;;;;;4975620;28;20084;-66
2023/04/05 09:59:11;;;;;;;11.20;5.28;;;7.70;99.90;;;;;;4979287;28;20034;-66
2023/04/05 10:01:43;;;;;;;11.25;5.80;;;7.90;99.90;;;;;;4967613;28;20528;-65
2023/04/05 10:04:08;;;;;;;12.00;6.07;;;8.00;99.20;;;;;;4992746;28;20386;-65
2023/04/05 10:06:41;;;;;;;11.38;5.60;;;8.10;99.90;;;;;;4982012;28;20053;-65
2023/04/05 10:09:09;;;;;;;10.20;5.55;;;8.10;98.90;;;;;;4966420;28;20133;-65
2023/04/05 10:11:36;;;;;;;15.20;6.57;;;8.10;99.90;;;;;;4989782;28;20409;-65
2023/04/05 10:14:05;;;;;;;11.90;6.40;;;8.20;99.90;;;;;;4992024;28;20073;-65
2023/04/05 10:16:35;;;;;;;11.07;5.75;;;8.30;99.90;;;;;;4986680;28;20049;-65
2023/04/05 10:19:02;;;;;;;10.93;5.93;;;8.40;99.60;;;;;;4963997;28;20069;-67
2023/04/05 10:21:31;;;;;;;10.27;5.85;;;8.40;99.20;;;;;;4991093;28;20046;-67
2023/04/05 10:24:15;;;;;;;10.95;5.80;;;8.50;99.40;;;;;;4992546;28;20042;-67
2023/04/05 10:26:56;;;;;;;12.55;6.15;;;8.50;97.70;;;;;;4971015;28;20078;-67
2023/04/05 10:29:28;;;;;;;;;;;8.50;97.50;;;;;;4985162;28;20046;-67
2023/04/05 10:32:20;;;;;;;11.95;6.60;;;8.50;92.80;;;;;;4979363;28;20013;-67
2023/04/05 10:34:50;;;;;;;;;;;8.50;92.40;;;;;;4986201;28;20042;-67
2023/04/05 10:37:47;;;;;;;10.50;6.15;;;8.50;92.60;;;;;;4988636;28;19918;-66
2023/04/05 10:40:15;;;;;;;9.85;6.35;;;8.50;94.30;;;;;;4973295;28;20149;-67
2023/04/05 10:42:42;;;;;;;9.38;6.15;;;8.60;98.30;;;;;;4981319;28;20034;-67
2023/04/05 10:45:11;;;;;;;10.25;5.82;;;8.90;98.30;;;;;;4966633;28;20074;-67
2023/04/05 10:47:48;;;;;;;11.52;6.70;;;9.00;98.10;;;;;;4986106;28;20047;-68
2023/04/05 10:50:22;;;;;;;14.57;6.57;;;9.20;95.90;;;;;;4988903;28;20085;-67
2023/04/05 10:52:49;;;;;;;12.48;6.75;;;9.30;95.90;;;;;;4991661;28;20045;-67
2023/04/05 10:55:16;;;;;;;11.32;6.15;;;9.40;97.50;;;;;;4959199;28;20043;-67
2023/04/05 10:57:43;;;;;;;10.88;6.43;;;9.40;96.50;;;;;;4971051;28;20034;-67
2023/04/05 11:00:10;;;;;;;11.15;6.32;;;9.30;96.10;;;;;;4991879;28;20046;-66
2023/04/05 11:02:36;;;;;;;11.80;6.50;;;9.30;96.80;;;;;;4985813;28;20038;-66
2023/04/05 11:05:03;;;;;;;8.98;6.25;;;9.30;96.50;;;;;;4991275;28;20038;-66
2023/04/05 11:07:43;;;;;;;11.93;6.35;;;9.50;97.30;;;;;;4991503;28;20038;-66
2023/04/05 11:10:16;;;;;;;9.07;5.85;;;9.60;96.30;;;;;;4983473;28;20049;-67
2023/04/05 11:12:47;;;;;;;10.25;5.90;;;9.80;95.20;;;;;;4979196;28;20053;-65
2023/04/05 11:15:27;;;;;;;8.45;5.68;;;9.80;95.50;;;;;;4991724;28;20539;-64
2023/04/05 11:18:02;;;;;;;9.38;6.10;;;9.80;93.50;;;;;;4991742;28;20101;-65
2023/04/05 11:20:50;;;;;;;10.50;6.00;;;9.80;94.30;;;;;;4983399;28;20121;-64
2023/04/05 11:23:20;;;;;;;11.73;6.38;;;9.90;94.90;;;;;;4991785;28;20038;-65
2023/04/05 11:25:56;;;;;;;9.95;6.43;;;10.10;96.80;;;;;;4991776;28;20500;-64
2023/04/05 11:28:30;;;;;;;10.52;5.70;;;10.20;95.90;;;;;;4987509;28;20408;-64
2023/04/05 11:30:57;;;;;;;11.48;6.32;;;10.10;92.30;;;;;;4985871;28;20493;-64
2023/04/05 11:33:53;;;;;;;9.13;6.03;;;10.00;95.00;;;;;;4991448;28;20386;-64
2023/04/05 11:36:34;;;;;;;9.40;6.28;;;10.10;93.10;;;;;;4982091;28;20050;-65
2023/04/05 11:39:19;;;;;;;10.15;5.88;;;10.20;90.70;;;;;;4990898;28;20421;-64
2023/04/05 11:41:53;;;;;;;11.23;6.22;;;10.40;90.90;;;;;;4972157;28;20050;-64
2023/04/05 11:44:20;;;;;;;8.95;5.90;;;10.50;92.10;;;;;;4975919;28;20088;-64
2023/04/05 11:46:46;;;;;;;10.15;6.00;;;10.50;93.60;;;;;;4978253;28;20041;-64
2023/04/05 11:49:12;;;;;;;9.82;6.43;;;10.40;90.60;;;;;;4991260;28;20030;-64
2023/04/05 11:51:47;;;;;;;9.52;5.80;;;10.50;94.00;;;;;;4987745;28;20046;-65
2023/04/05 11:54:13;;;;;;;12.68;5.80;;;10.60;92.40;;;;;;4979996;28;20043;-65
2023/04/05 11:56:39;;;;;;;8.82;5.85;;;10.70;92.30;;;;;;4985037;28;20125;-64
2023/04/05 11:59:06;;;;;;;8.35;5.78;;;10.70;92.70;;;;;;4994788;28;20034;-67
2023/04/05 12:01:31;;;;;;;8.98;6.05;;;10.60;90.60;;;;;;4983255;28;20046;-67
2023/04/05 12:03:57;;;;;;;10.32;6.13;;;10.60;91.90;;;;;;4983177;28;20045;-67
2023/04/05 12:06:24;;;;;;;10.57;6.15;;;10.50;91.80;;;;;;4994711;28;20042;-67
2023/04/05 12:08:51;;;;;;;11.57;6.65;;;10.50;92.20;;;;;;4962779;28;20038;-67
2023/04/05 12:11:27;;;;;;;9.25;5.38;;;10.60;92.00;;;;;;4978524;28;20409;-68
2023/04/05 12:14:00;;;;;;;11.77;5.93;;;10.70;89.90;;;;;;4994155;28;20073;-67
2023/04/05 12:16:26;;;;;;;9.60;6.32;;;11.00;92.90;;;;;;4989952;28;20492;-67
2023/04/05 12:18:54;;;;;;;7.88;5.60;;;11.10;93.30;;;;;;4975647;28;20062;-67
2023/04/05 12:21:20;;;;;;;10.60;5.57;;;11.20;92.40;;;;;;4974774;28;20058;-67
2023/04/05 12:23:46;;;;;;;9.45;5.68;;;11.20;92.20;;;;;;4990100;28;20030;-67
2023/04/05 12:26:13;;;;;;;12.70;6.03;;;11.20;91.50;;;;;;4990527;28;20034;-67
2023/04/05 12:28:56;;;;;;;9.35;6.10;;;11.30;91.60;;;;;;4983973;28;20038;-67
2023/04/05 12:31:41;;;;;;;10.00;5.80;;;11.40;90.80;;;;;;4989150;28;20508;-67
2023/04/05 12:34:07;;;;;;;9.75;6.22;;;11.50;79.80;;;;;;4994207;28;20049;-67
2023/04/05 12:36:33;;;;;;;10.90;6.15;;;11.50;90.00;;;;;;4994473;28;20062;-67
2023/04/05 12:38:59;;;;;;;8.20;5.60;;;11.70;90.30;;;;;;4962339;28;20579;-67
2023/04/05 12:41:29;;;;;;;10.15;6.05;;;11.50;81.10;;;;;;4987064;28;20065;-67
2023/04/05 12:44:00;;;;;;;9.52;5.95;;;11.50;84.60;;;;;;4992472;28;20037;-67
2023/04/05 12:46:42;;;;;;;16.13;5.88;;;11.50;86.40;;;;;;4981771;28;20163;-67